createdAt,value
2018-02-23T15:19:39.523Z,1019.6
2018-02-23T15:21:13.154Z,1019.6
2018-02-23T15:22:15.527Z,1019.6
2018-02-23T15:23:18.191Z,1019.7
2018-02-23T15:24:20.554Z,1019.7
2018-02-23T15:25:23.207Z,1019.7
2018-02-23T15:26:25.582Z,1019.7
2018-02-23T15:27:27.955Z,1019.8
2018-02-23T15:28:30.328Z,1019.8
2018-02-23T15:29:32.702Z,1019.7
2018-02-23T15:30:35.070Z,1019.7
2018-02-23T15:31:37.444Z,1019.8
2018-02-23T15:32:39.818Z,1019.7
2018-02-23T15:33:42.185Z,1019.7
2018-02-23T15:34:44.559Z,1019.8
2018-02-23T15:35:46.927Z,1019.7
2018-02-23T15:36:49.308Z,1019.8
2018-02-23T15:37:51.683Z,1019.7
2018-02-23T15:38:54.324Z,1019.8
2018-02-23T15:39:56.699Z,1019.8
2018-02-23T15:40:59.080Z,1019.9
2018-02-23T15:42:01.454Z,1019.9
2018-02-23T15:43:03.824Z,1019.8
2018-02-23T15:44:06.499Z,1019.9
2018-02-23T15:45:08.863Z,1019.8
2018-02-23T15:46:11.282Z,1019.8
2018-02-23T15:47:13.919Z,1019.8
2018-02-23T15:48:16.282Z,1019.8
2018-02-23T15:49:18.669Z,1019.8
2018-02-23T15:50:21.358Z,1019.8
2018-02-23T15:51:23.694Z,1019.8
2018-02-23T15:52:26.346Z,1019.8
2018-02-23T15:53:28.708Z,1019.8
2018-02-23T15:54:31.078Z,1019.7
2018-02-23T15:55:33.438Z,1019.7
2018-02-23T15:56:35.810Z,1019.8
2018-02-23T15:57:38.193Z,1019.8
2018-02-23T15:58:40.557Z,1019.8
2018-02-23T15:59:42.930Z,1019.7
2018-02-23T16:00:45.298Z,1019.7
2018-02-23T16:01:47.672Z,1019.7
2018-02-23T16:02:50.329Z,1019.7
2018-02-23T16:03:52.699Z,1019.7
2018-02-23T16:04:55.061Z,1019.7
2018-02-23T16:05:57.439Z,1019.7
2018-02-23T16:06:59.805Z,1019.7
2018-02-23T16:08:02.461Z,1019.7
2018-02-23T16:09:05.118Z,1019.7
2018-02-23T16:10:07.479Z,1019.7
2018-02-23T16:11:09.852Z,1019.7
2018-02-23T16:12:12.235Z,1019.7
2018-02-23T16:13:14.874Z,1019.7
2018-02-23T16:14:17.550Z,1019.7
2018-02-23T16:15:19.924Z,1019.8
2018-02-23T16:16:22.589Z,1019.8
2018-02-23T16:17:24.968Z,1019.8
2018-02-23T16:18:27.622Z,1019.8
2018-02-23T16:19:30.262Z,1019.8
2018-02-23T16:20:32.630Z,1019.8
2018-02-23T16:21:35.018Z,1019.8
2018-02-23T16:22:37.672Z,1019.8
2018-02-23T16:23:40.068Z,1019.8
2018-02-23T16:24:42.416Z,1019.8
2018-02-23T16:25:45.060Z,1019.8
2018-02-23T16:26:47.442Z,1019.8
2018-02-23T16:27:50.103Z,1019.8
2018-02-23T16:28:52.751Z,1019.9
2018-02-23T16:29:55.116Z,1019.9
2018-02-23T16:30:57.500Z,1019.9
2018-02-23T16:31:59.868Z,1019.8
2018-02-23T16:33:02.525Z,1019.8
2018-02-23T16:34:04.890Z,1019.8
2018-02-23T16:35:07.247Z,1019.9
2018-02-23T16:36:09.936Z,1019.9
2018-02-23T16:37:12.305Z,1019.9
2018-02-23T16:38:14.674Z,1019.9
2018-02-23T16:39:17.336Z,1019.9
2018-02-23T16:40:19.710Z,1019.9
2018-02-23T16:41:22.072Z,1019.9
2018-02-23T16:42:24.445Z,1019.9
2018-02-23T16:43:26.811Z,1019.9
2018-02-23T16:44:29.180Z,1019.9
2018-02-23T16:45:31.573Z,1019.9
2018-02-23T16:46:34.229Z,1019.9
2018-02-23T16:47:36.602Z,1019.9
2018-02-23T16:48:38.975Z,1019.9
2018-02-23T16:49:41.347Z,1019.9
2018-02-23T16:50:43.712Z,1019.9
2018-02-23T16:51:46.366Z,1019.9
2018-02-23T16:52:49.018Z,1019.9
2018-02-23T16:53:51.678Z,1019.9
2018-02-23T16:54:54.031Z,1020
2018-02-23T16:55:56.414Z,1019.9
2018-02-23T16:56:58.782Z,1019.9
2018-02-23T16:58:01.159Z,1020
2018-02-23T16:59:03.518Z,1020
2018-02-23T17:00:06.166Z,1020
2018-02-23T17:01:08.829Z,1020
2018-02-23T17:02:11.200Z,1020
2018-02-23T17:03:13.563Z,1020
2018-02-23T17:04:15.931Z,1020
2018-02-23T17:05:18.305Z,1019.9
2018-02-23T17:06:20.674Z,1019.9
2018-02-23T17:07:23.047Z,1019.9
2018-02-23T17:08:25.411Z,1019.9
2018-02-23T17:09:27.768Z,1019.9
2018-02-23T17:10:30.141Z,1020
2018-02-23T17:11:32.785Z,1019.9
2018-02-23T17:12:35.164Z,1019.9
2018-02-23T17:13:37.530Z,1019.9
2018-02-23T17:14:40.182Z,1019.8
2018-02-23T17:15:42.559Z,1019.8
2018-02-23T17:16:44.935Z,1019.9
2018-02-23T17:17:47.296Z,1019.9
2018-02-23T17:18:49.658Z,1019.9
2018-02-23T17:19:52.016Z,1019.8
2018-02-23T17:20:54.386Z,1019.9
2018-02-23T17:21:56.750Z,1019.9
2018-02-23T17:22:59.122Z,1019.8
2018-02-23T17:24:01.498Z,1019.8
2018-02-23T17:25:04.153Z,1019.8
2018-02-23T17:26:06.512Z,1019.9
2018-02-23T17:27:08.901Z,1019.8
2018-02-23T17:28:11.545Z,1019.9
2018-02-23T17:29:13.912Z,1019.9
2018-02-23T17:30:16.856Z,1019.9
2018-02-23T17:31:19.228Z,1019.8
2018-02-23T17:32:21.870Z,1019.9
2018-02-23T17:33:24.252Z,1019.9
2018-02-23T17:34:26.903Z,1020
2018-02-23T17:35:29.294Z,1020
2018-02-23T17:36:31.668Z,1020
2018-02-23T17:37:34.043Z,1020
2018-02-23T17:38:36.702Z,1020
2018-02-23T17:39:39.078Z,1020
2018-02-23T17:40:41.730Z,1019.9
2018-02-23T17:41:44.114Z,1020
2018-02-23T17:42:46.486Z,1019.9
2018-02-23T17:43:48.853Z,1020
2018-02-23T17:44:51.244Z,1019.9
2018-02-23T17:45:53.617Z,1020
2018-02-23T17:46:56.007Z,1020
2018-02-23T17:47:58.388Z,1020
2018-02-23T17:49:00.759Z,1020
2018-02-23T17:50:03.478Z,1020
2018-02-23T17:51:05.849Z,1020
2018-02-23T17:52:08.247Z,1020
2018-02-23T17:53:10.615Z,1020
2018-02-23T17:54:13.279Z,1020
2018-02-23T17:55:15.649Z,1020
2018-02-23T17:56:18.025Z,1020
2018-02-23T17:57:20.404Z,1020
2018-02-23T17:58:22.780Z,1020
2018-02-23T17:59:25.422Z,1020
2018-02-23T18:00:27.790Z,1020.1
2018-02-23T18:01:30.442Z,1020.1
2018-02-23T18:02:32.872Z,1020.1
2018-02-23T18:03:35.239Z,1020.1
2018-02-23T18:04:37.629Z,1020.2
2018-02-23T18:05:40.311Z,1020.2
2018-02-23T18:06:42.692Z,1020.2
2018-02-23T18:07:45.072Z,1020.2
2018-02-23T18:08:47.451Z,1020.3
2018-02-23T18:09:49.838Z,1020.3
2018-02-23T18:10:52.219Z,1020.3
2018-02-23T18:11:54.594Z,1020.2
2018-02-23T18:12:57.264Z,1020.3
2018-02-23T18:13:59.645Z,1020.3
2018-02-23T18:15:02.312Z,1020.2
2018-02-23T18:16:04.671Z,1020.3
2018-02-23T18:17:07.042Z,1020.3
2018-02-23T18:18:09.404Z,1020.4
2018-02-23T18:19:11.777Z,1020.3
2018-02-23T18:20:14.147Z,1020.4
2018-02-23T18:21:16.514Z,1020.4
2018-02-23T18:22:18.874Z,1020.3
2018-02-23T18:23:21.254Z,1020.4
2018-02-23T18:24:23.632Z,1020.4
2018-02-23T18:25:26.270Z,1020.4
2018-02-23T18:26:28.648Z,1020.4
2018-02-23T18:27:31.019Z,1020.4
2018-02-23T18:28:33.385Z,1020.4
2018-02-23T18:29:36.053Z,1020.3
2018-02-23T18:30:38.694Z,1020.4
2018-02-23T18:31:41.060Z,1020.5
2018-02-23T18:32:43.439Z,1020.4
2018-02-23T18:33:45.806Z,1020.4
2018-02-23T18:34:48.166Z,1020.4
2018-02-23T18:35:50.542Z,1020.4
2018-02-23T18:36:53.207Z,1020.4
2018-02-23T18:37:55.574Z,1020.4
2018-02-23T18:38:57.942Z,1020.4
2018-02-23T18:40:00.304Z,1020.5
2018-02-23T18:41:02.673Z,1020.4
2018-02-23T18:42:05.042Z,1020.4
2018-02-23T18:43:07.393Z,1020.4
2018-02-23T18:44:09.773Z,1020.4
2018-02-23T18:45:12.141Z,1020.4
2018-02-23T18:46:14.511Z,1020.5
2018-02-23T18:47:16.876Z,1020.5
2018-02-23T18:48:19.255Z,1020.5
2018-02-23T18:49:21.605Z,1020.5
2018-02-23T18:50:23.980Z,1020.5
2018-02-23T18:51:26.354Z,1020.5
2018-02-23T18:52:28.718Z,1020.5
2018-02-23T18:53:31.088Z,1020.5
2018-02-23T18:54:33.780Z,1020.5
2018-02-23T18:55:36.107Z,1020.5
2018-02-23T18:56:38.483Z,1020.5
2018-02-23T18:57:40.849Z,1020.5
2018-02-23T18:58:43.226Z,1020.5
2018-02-23T18:59:45.595Z,1020.5
2018-02-23T19:00:47.965Z,1020.5
2018-02-23T19:01:50.611Z,1020.5
2018-02-23T19:02:52.982Z,1020.5
2018-02-23T19:03:55.342Z,1020.5
2018-02-23T19:04:57.720Z,1020.5
2018-02-23T19:06:00.097Z,1020.5
2018-02-23T19:07:02.753Z,1020.5
2018-02-23T19:08:05.111Z,1020.5
2018-02-23T19:09:07.466Z,1020.5
2018-02-23T19:10:09.842Z,1020.5
2018-02-23T19:11:12.612Z,1020.6
2018-02-23T19:12:15.205Z,1020.5
2018-02-23T19:13:17.580Z,1020.5
2018-02-23T19:14:19.952Z,1020.5
2018-02-23T19:15:22.333Z,1020.6
2018-02-23T19:16:24.700Z,1020.5
2018-02-23T19:17:27.051Z,1020.5
2018-02-23T19:18:29.429Z,1020.5
2018-02-23T19:19:31.796Z,1020.5
2018-02-23T19:20:34.453Z,1020.5
2018-02-23T19:21:36.816Z,1020.5
2018-02-23T19:22:39.178Z,1020.5
2018-02-23T19:23:41.556Z,1020.5
2018-02-23T19:24:43.917Z,1020.5
2018-02-23T19:25:46.291Z,1020.5
2018-02-23T19:26:48.654Z,1020.5
2018-02-23T19:27:51.021Z,1020.5
2018-02-23T19:28:53.388Z,1020.5
2018-02-23T19:29:55.756Z,1020.5
2018-02-23T19:30:58.116Z,1020.5
2018-02-23T19:32:00.476Z,1020.6
2018-02-23T19:33:03.415Z,1020.5
2018-02-23T19:34:05.767Z,1020.6
2018-02-23T19:35:08.133Z,1020.6
2018-02-23T19:36:10.501Z,1020.6
2018-02-23T19:37:13.162Z,1020.6
2018-02-23T19:38:15.532Z,1020.6
2018-02-23T19:39:17.901Z,1020.6
2018-02-23T19:40:20.264Z,1020.6
2018-02-23T19:41:22.923Z,1020.6
2018-02-23T19:42:25.296Z,1020.6
2018-02-23T19:43:27.658Z,1020.6
2018-02-23T19:44:30.034Z,1020.7
2018-02-23T19:45:32.461Z,1020.7
2018-02-23T19:46:35.053Z,1020.6
2018-02-23T19:47:37.414Z,1020.7
2018-02-23T19:48:39.797Z,1020.7
2018-02-23T19:49:42.160Z,1020.6
2018-02-23T19:50:44.524Z,1020.6
2018-02-23T19:51:46.927Z,1020.6
2018-02-23T19:52:49.268Z,1020.7
2018-02-23T19:53:51.637Z,1020.6
2018-02-23T19:54:54.301Z,1020.7
2018-02-23T19:55:56.745Z,1020.6
2018-02-23T19:56:59.900Z,1020.7
2018-02-23T19:58:02.800Z,1020.6
2018-02-23T19:59:06.201Z,1020.6
2018-02-23T20:00:11.986Z,1020.6
2018-02-23T20:01:17.973Z,1020.6
2018-02-23T20:02:21.112Z,1020.7
2018-02-23T20:03:25.167Z,1020.7
2018-02-23T20:04:28.715Z,1020.7
2018-02-23T20:05:31.775Z,1020.7
2018-02-23T20:06:35.951Z,1020.7
2018-02-23T20:07:40.383Z,1020.8
2018-02-23T20:08:43.485Z,1020.8
2018-02-23T20:09:46.000Z,1020.8
2018-02-23T20:10:48.429Z,1020.8
2018-02-23T20:11:50.799Z,1020.8
2018-02-23T20:12:53.174Z,1020.8
2018-02-23T20:13:55.531Z,1020.8
2018-02-23T20:14:57.904Z,1020.8
2018-02-23T20:16:00.266Z,1020.9
2018-02-23T20:17:02.638Z,1020.8
2018-02-23T20:18:05.046Z,1020.9
2018-02-23T20:19:07.719Z,1020.9
2018-02-23T20:20:10.093Z,1020.9
2018-02-23T20:21:12.469Z,1020.9
2018-02-23T20:22:14.829Z,1020.9
2018-02-23T20:23:17.477Z,1020.9
2018-02-23T20:24:19.852Z,1020.9
2018-02-23T20:25:22.217Z,1020.9
2018-02-23T20:26:24.579Z,1020.9
2018-02-23T20:27:26.950Z,1020.9
2018-02-23T20:28:29.313Z,1021
2018-02-23T20:29:31.692Z,1020.9
2018-02-23T20:30:34.058Z,1020.9
2018-02-23T20:31:36.414Z,1020.9
2018-02-23T20:32:39.073Z,1021
2018-02-23T20:33:41.432Z,1021
2018-02-23T20:34:44.095Z,1021
2018-02-23T20:35:46.739Z,1021
2018-02-23T20:36:49.107Z,1021
2018-02-23T20:37:51.482Z,1021
2018-02-23T20:38:54.421Z,1020.9
2018-02-23T20:39:56.779Z,1021
2018-02-23T20:40:59.160Z,1021
2018-02-23T20:42:01.520Z,1021
2018-02-23T20:43:03.885Z,1021
2018-02-23T20:44:06.262Z,1021
2018-02-23T20:45:08.622Z,1021
2018-02-23T20:46:11.267Z,1021.1
2018-02-23T20:47:13.638Z,1021.1
2018-02-23T20:48:15.999Z,1021
2018-02-23T20:49:18.372Z,1021.1
2018-02-23T20:50:20.736Z,1021.1
2018-02-23T20:51:23.111Z,1021
2018-02-23T20:52:25.485Z,1021.1
2018-02-23T20:53:27.843Z,1021.1
2018-02-23T20:54:30.216Z,1021.1
2018-02-23T20:55:32.579Z,1021.1
2018-02-23T20:56:35.094Z,1021.1
2018-02-23T20:57:37.462Z,1021.2
2018-02-23T20:58:40.109Z,1021.2
2018-02-23T20:59:42.492Z,1021.2
2018-02-23T21:00:44.866Z,1021.1
2018-02-23T21:01:47.513Z,1021.2
2018-02-23T21:02:49.880Z,1021.2
2018-02-23T21:03:52.250Z,1021.2
2018-02-23T21:04:54.881Z,1021.1
2018-02-23T21:05:57.249Z,1021.2
2018-02-23T21:06:59.629Z,1021.2
2018-02-23T21:08:01.989Z,1021.2
2018-02-23T21:09:04.362Z,1021.2
2018-02-23T21:10:07.008Z,1021.2
2018-02-23T21:11:09.373Z,1021.2
2018-02-23T21:12:12.314Z,1021.2
2018-02-23T21:13:14.679Z,1021.2
2018-02-23T21:14:17.047Z,1021.3
2018-02-23T21:15:19.691Z,1021.3
2018-02-23T21:16:22.346Z,1021.3
2018-02-23T21:17:24.713Z,1021.3
2018-02-23T21:18:27.371Z,1021.3
2018-02-23T21:19:30.010Z,1021.3
2018-02-23T21:20:32.370Z,1021.3
2018-02-23T21:21:35.037Z,1021.3
2018-02-23T21:22:37.391Z,1021.3
2018-02-23T21:23:39.799Z,1021.4
2018-02-23T21:24:42.120Z,1021.3
2018-02-23T21:25:45.072Z,1021.3
2018-02-23T21:26:47.446Z,1021.3
2018-02-23T21:27:49.823Z,1021.4
2018-02-23T21:28:52.190Z,1021.4
2018-02-23T21:29:54.841Z,1021.4
2018-02-23T21:30:57.210Z,1021.4
2018-02-23T21:31:59.865Z,1021.4
2018-02-23T21:33:02.233Z,1021.4
2018-02-23T21:34:04.598Z,1021.4
2018-02-23T21:35:06.962Z,1021.4
2018-02-23T21:36:09.339Z,1021.4
2018-02-23T21:37:11.703Z,1021.4
2018-02-23T21:38:14.356Z,1021.4
2018-02-23T21:39:16.716Z,1021.4
2018-02-23T21:40:19.089Z,1021.4
2018-02-23T21:41:21.457Z,1021.4
2018-02-23T21:42:23.827Z,1021.4
2018-02-23T21:43:26.189Z,1021.4
2018-02-23T21:44:28.560Z,1021.4
2018-02-23T21:45:30.934Z,1021.4
2018-02-23T21:46:33.602Z,1021.4
2018-02-23T21:47:35.964Z,1021.5
2018-02-23T21:48:38.319Z,1021.4
2018-02-23T21:49:40.690Z,1021.5
2018-02-23T21:50:43.057Z,1021.4
2018-02-23T21:51:45.419Z,1021.5
2018-02-23T21:52:47.783Z,1021.5
2018-02-23T21:53:50.148Z,1021.5
2018-02-23T21:54:52.520Z,1021.5
2018-02-23T21:55:54.890Z,1021.5
2018-02-23T21:56:57.253Z,1021.5
2018-02-23T21:57:59.902Z,1021.5
2018-02-23T21:59:02.274Z,1021.5
2018-02-23T22:00:04.637Z,1021.6
2018-02-23T22:01:07.008Z,1021.6
2018-02-23T22:02:09.645Z,1021.6
2018-02-23T22:03:12.018Z,1021.5
2018-02-23T22:04:14.386Z,1021.6
2018-02-23T22:05:16.752Z,1021.5
2018-02-23T22:06:19.114Z,1021.6
2018-02-23T22:07:21.491Z,1021.6
2018-02-23T22:08:24.124Z,1021.6
2018-02-23T22:09:26.507Z,1021.5
2018-02-23T22:10:28.874Z,1021.6
2018-02-23T22:11:31.229Z,1021.5
2018-02-23T22:12:33.605Z,1021.5
2018-02-23T22:13:35.969Z,1021.5
2018-02-23T22:14:38.329Z,1021.5
2018-02-23T22:15:40.982Z,1021.5
2018-02-23T22:16:43.349Z,1021.6
2018-02-23T22:17:45.712Z,1021.6
2018-02-23T22:18:48.078Z,1021.5
2018-02-23T22:19:50.716Z,1021.5
2018-02-23T22:20:53.099Z,1021.5
2018-02-23T22:21:55.467Z,1021.5
2018-02-23T22:22:57.839Z,1021.5
2018-02-23T22:24:00.199Z,1021.6
2018-02-23T22:25:02.576Z,1021.5
2018-02-23T22:26:04.945Z,1021.5
2018-02-23T22:27:07.318Z,1021.5
2018-02-23T22:28:09.955Z,1021.5
2018-02-23T22:29:12.318Z,1021.5
2018-02-23T22:30:14.691Z,1021.5
2018-02-23T22:31:17.057Z,1021.5
2018-02-23T22:32:19.427Z,1021.5
2018-02-23T22:33:21.792Z,1021.5
2018-02-23T22:34:24.148Z,1021.5
2018-02-23T22:35:26.522Z,1021.6
2018-02-23T22:36:28.878Z,1021.6
2018-02-23T22:37:31.239Z,1021.5
2018-02-23T22:38:33.598Z,1021.6
2018-02-23T22:39:35.972Z,1021.6
2018-02-23T22:40:38.336Z,1021.6
2018-02-23T22:41:40.715Z,1021.6
2018-02-23T22:42:43.070Z,1021.5
2018-02-23T22:43:45.439Z,1021.6
2018-02-23T22:44:47.813Z,1021.6
2018-02-23T22:45:50.452Z,1021.7
2018-02-23T22:46:52.814Z,1021.6
2018-02-23T22:47:55.182Z,1021.6
2018-02-23T22:48:57.545Z,1021.6
2018-02-23T22:49:59.915Z,1021.7
2018-02-23T22:51:02.283Z,1021.7
2018-02-23T22:52:04.661Z,1021.6
2018-02-23T22:53:07.025Z,1021.6
2018-02-23T22:54:09.392Z,1021.5
2018-02-23T22:55:11.760Z,1021.6
2018-02-23T22:56:14.403Z,1021.6
2018-02-23T22:57:16.777Z,1021.6
2018-02-23T22:58:19.146Z,1021.5
2018-02-23T22:59:21.789Z,1021.5
2018-02-23T23:00:24.155Z,1021.5
2018-02-23T23:01:26.816Z,1021.4
2018-02-23T23:02:29.457Z,1021.4
2018-02-23T23:03:32.108Z,1021.4
2018-02-23T23:04:34.467Z,1021.4
2018-02-23T23:05:36.832Z,1021.4
2018-02-23T23:06:39.209Z,1021.5
2018-02-23T23:07:41.570Z,1021.4
2018-02-23T23:08:43.941Z,1021.4
2018-02-23T23:09:46.316Z,1021.4
2018-02-23T23:10:48.673Z,1021.3
2018-02-23T23:11:51.327Z,1021.4
2018-02-23T23:12:53.693Z,1021.4
2018-02-23T23:13:56.053Z,1021.3
2018-02-23T23:14:58.417Z,1021.4
2018-02-23T23:16:00.779Z,1021.3
2018-02-23T23:17:03.145Z,1021.4
2018-02-23T23:18:05.805Z,1021.3
2018-02-23T23:19:08.456Z,1021.4
2018-02-23T23:20:10.821Z,1021.3
2018-02-23T23:21:13.189Z,1021.3
2018-02-23T23:22:15.570Z,1021.4
2018-02-23T23:23:17.931Z,1021.4
2018-02-23T23:24:20.300Z,1021.4
2018-02-23T23:25:22.658Z,1021.3
2018-02-23T23:26:25.021Z,1021.4
2018-02-23T23:27:27.388Z,1021.5
2018-02-23T23:28:29.760Z,1021.4
2018-02-23T23:29:32.121Z,1021.4
2018-02-23T23:30:34.484Z,1021.4
2018-02-23T23:31:36.843Z,1021.5
2018-02-23T23:32:39.224Z,1021.4
2018-02-23T23:33:41.588Z,1021.4
2018-02-23T23:34:43.945Z,1021.4
2018-02-23T23:35:46.317Z,1021.4
2018-02-23T23:36:48.680Z,1021.4
2018-02-23T23:37:51.051Z,1021.4
2018-02-23T23:38:53.426Z,1021.4
2018-02-23T23:39:55.786Z,1021.5
2018-02-23T23:40:58.164Z,1021.4
2018-02-23T23:42:00.537Z,1021.4
2018-02-23T23:43:03.529Z,1021.5
2018-02-23T23:44:05.889Z,1021.5
2018-02-23T23:45:08.256Z,1021.5
2018-02-23T23:46:10.629Z,1021.4
2018-02-23T23:47:12.997Z,1021.5
2018-02-23T23:48:15.366Z,1021.5
2018-02-23T23:49:17.737Z,1021.4
2018-02-23T23:50:20.098Z,1021.4
2018-02-23T23:51:22.501Z,1021.4
2018-02-23T23:52:24.845Z,1021.4
2018-02-23T23:53:27.202Z,1021.4
2018-02-23T23:54:29.576Z,1021.4
2018-02-23T23:55:32.220Z,1021.4
2018-02-23T23:56:34.587Z,1021.4
2018-02-23T23:57:37.237Z,1021.5
2018-02-23T23:58:39.614Z,1021.5
2018-02-23T23:59:42.252Z,1021.5
